createdAt,value
2022-10-06T00:01:14.766Z,77.34
2022-10-06T00:03:43.191Z,77.73
2022-10-06T00:06:16.875Z,77.61
2022-10-06T00:08:45.926Z,78.04
2022-10-06T00:11:15.724Z,78.25
2022-10-06T00:13:46.904Z,78.80
2022-10-06T00:16:21.781Z,78.70
2022-10-06T00:18:49.535Z,79.06
2022-10-06T00:21:17.910Z,79.53
2022-10-06T00:23:45.946Z,78.67
2022-10-06T00:26:17.296Z,79.21
2022-10-06T00:28:48.071Z,78.27
2022-10-06T00:31:19.536Z,78.47
2022-10-06T00:33:50.895Z,77.56
2022-10-06T00:36:18.774Z,78.31
2022-10-06T00:38:46.431Z,79.08
2022-10-06T00:41:16.727Z,79.56
2022-10-06T00:43:53.142Z,80.31
2022-10-06T00:46:38.542Z,81.54
2022-10-06T00:49:14.616Z,81.13
2022-10-06T00:51:49.958Z,80.10
2022-10-06T00:54:18.776Z,79.16
2022-10-06T00:56:46.510Z,79.52
2022-10-06T00:59:19.197Z,79.33
2022-10-06T01:02:22.811Z,80.05
2022-10-06T01:04:57.448Z,80.21
2022-10-06T01:07:29.431Z,78.97
2022-10-06T01:10:00.902Z,77.60
2022-10-06T01:12:30.770Z,78.39
2022-10-06T01:14:58.427Z,80.14
2022-10-06T01:17:55.267Z,80.01
2022-10-06T01:20:23.786Z,79.00
2022-10-06T01:23:01.332Z,79.34
2022-10-06T01:25:31.310Z,79.06
2022-10-06T01:28:01.156Z,79.66
2022-10-06T01:30:46.242Z,80.14
2022-10-06T01:33:14.771Z,78.69
2022-10-06T01:35:43.891Z,78.70
2022-10-06T01:38:11.357Z,79.35
2022-10-06T01:40:38.884Z,79.58
2022-10-06T01:43:06.432Z,81.05
2022-10-06T01:45:34.058Z,81.12
2022-10-06T01:48:01.595Z,81.33
2022-10-06T01:50:29.175Z,83.65
2022-10-06T01:52:57.575Z,84.23
2022-10-06T01:55:26.300Z,85.23
2022-10-06T01:57:55.446Z,85.66
2022-10-06T02:00:23.054Z,85.28
2022-10-06T02:02:50.908Z,86.59
2022-10-06T02:05:18.585Z,85.43
2022-10-06T02:07:50.501Z,85.36
2022-10-06T02:10:18.134Z,86.31
2022-10-06T02:12:53.872Z,86.86
2022-10-06T02:15:27.301Z,86.80
2022-10-06T02:17:55.724Z,87.24
2022-10-06T02:20:27.830Z,86.90
2022-10-06T02:22:55.309Z,87.13
2022-10-06T02:25:22.809Z,86.66
2022-10-06T02:27:50.422Z,86.92
2022-10-06T02:30:18.064Z,86.12
2022-10-06T02:32:47.088Z,85.81
2022-10-06T02:35:14.880Z,86.05
2022-10-06T02:37:43.628Z,85.34
2022-10-06T02:40:16.423Z,85.08
2022-10-06T02:42:46.055Z,85.53
2022-10-06T02:45:18.099Z,86.01
2022-10-06T02:47:46.554Z,86.63
2022-10-06T02:50:14.172Z,86.18
2022-10-06T02:52:42.999Z,86.33
2022-10-06T02:55:12.070Z,86.71
2022-10-06T02:57:40.323Z,86.62
2022-10-06T03:00:09.088Z,87.06
2022-10-06T03:02:37.089Z,87.01
2022-10-06T03:05:06.152Z,87.24
2022-10-06T03:07:34.837Z,86.50
2022-10-06T03:10:02.649Z,87.56
2022-10-06T03:12:31.017Z,86.99
2022-10-06T03:14:58.990Z,87.20
2022-10-06T03:17:26.682Z,87.32
2022-10-06T03:19:58.064Z,86.86
2022-10-06T03:22:26.875Z,85.18
2022-10-06T03:24:56.710Z,84.47
2022-10-06T03:27:24.303Z,83.10
2022-10-06T03:29:55.621Z,84.89
2022-10-06T03:32:25.319Z,86.57
2022-10-06T03:34:53.450Z,88.08
2022-10-06T03:37:21.994Z,88.77
2022-10-06T03:39:50.302Z,89.81
2022-10-06T03:42:18.707Z,90.84
2022-10-06T03:44:47.492Z,92.21
2022-10-06T03:47:17.363Z,92.43
2022-10-06T03:49:46.116Z,93.01
2022-10-06T03:52:15.663Z,93.76
2022-10-06T03:54:43.203Z,93.40
2022-10-06T03:57:11.475Z,93.41
2022-10-06T03:59:39.467Z,93.11
2022-10-06T04:02:07.845Z,93.92
2022-10-06T04:04:38.514Z,94.04
2022-10-06T04:07:11.011Z,93.28
2022-10-06T04:09:39.513Z,93.11
2022-10-06T04:12:07.535Z,93.09
2022-10-06T04:14:37.725Z,92.65
2022-10-06T04:17:06.905Z,93.38
2022-10-06T04:19:36.946Z,93.37
2022-10-06T04:22:05.389Z,94.21
2022-10-06T04:24:34.137Z,94.80
2022-10-06T04:27:20.930Z,94.56
2022-10-06T04:30:08.097Z,93.95
2022-10-06T04:32:35.680Z,94.17
2022-10-06T04:35:03.947Z,93.95
2022-10-06T04:37:31.853Z,93.37
2022-10-06T04:39:59.493Z,93.17
2022-10-06T04:42:34.743Z,92.62
2022-10-06T04:45:06.960Z,93.96
2022-10-06T04:47:36.202Z,94.43
2022-10-06T04:50:04.759Z,94.92
2022-10-06T04:52:32.310Z,95.15
2022-10-06T04:54:59.919Z,93.54
2022-10-06T04:57:27.796Z,93.03
2022-10-06T05:00:15.115Z,92.25
2022-10-06T05:02:45.553Z,93.98
2022-10-06T05:05:14.306Z,94.97
2022-10-06T05:07:45.800Z,92.66
2022-10-06T05:10:14.128Z,91.99
2022-10-06T05:12:41.657Z,91.99
2022-10-06T05:15:10.640Z,92.07
2022-10-06T05:17:38.325Z,92.74
2022-10-06T05:20:06.773Z,92.79
2022-10-06T05:22:34.461Z,92.05
2022-10-06T05:25:02.180Z,91.75
2022-10-06T05:27:29.867Z,90.81
2022-10-06T05:29:57.535Z,91.03
2022-10-06T05:32:25.694Z,90.11
2022-10-06T05:34:53.526Z,88.26
2022-10-06T05:37:21.189Z,86.90
2022-10-06T05:39:48.761Z,85.49
2022-10-06T05:42:17.315Z,86.60
2022-10-06T05:44:45.103Z,86.73
2022-10-06T05:47:15.452Z,87.90
2022-10-06T05:49:43.135Z,87.77
2022-10-06T05:52:10.667Z,87.21
2022-10-06T05:54:38.279Z,86.23
2022-10-06T05:57:08.275Z,87.03
2022-10-06T05:59:35.998Z,87.61
2022-10-06T06:02:05.041Z,86.97
2022-10-06T06:04:37.920Z,86.57
2022-10-06T06:07:06.299Z,86.65
2022-10-06T06:09:34.489Z,85.85
2022-10-06T06:12:04.345Z,85.14
2022-10-06T06:15:10.550Z,84.28
2022-10-06T06:17:52.967Z,83.23
2022-10-06T06:20:20.709Z,83.81
2022-10-06T06:22:53.624Z,83.67
2022-10-06T06:25:26.872Z,82.07
2022-10-06T06:27:56.341Z,81.79
2022-10-06T06:30:25.502Z,81.12
2022-10-06T06:33:00.363Z,80.83
2022-10-06T06:35:31.428Z,81.31
2022-10-06T06:37:59.518Z,79.74
2022-10-06T06:40:27.805Z,80.01
2022-10-06T06:42:55.538Z,78.98
2022-10-06T06:45:37.299Z,76.88
2022-10-06T06:48:37.903Z,74.81
2022-10-06T06:51:06.243Z,72.61
2022-10-06T06:53:34.895Z,71.78
2022-10-06T06:56:04.147Z,70.51
2022-10-06T06:58:34.032Z,70.60
2022-10-06T07:01:19.545Z,69.30
2022-10-06T07:03:59.294Z,68.88
2022-10-06T07:06:33.000Z,67.53
2022-10-06T07:09:03.687Z,65.11
2022-10-06T07:11:37.306Z,65.91
2022-10-06T07:14:13.190Z,63.76
2022-10-06T07:17:02.560Z,64.56
2022-10-06T07:19:59.597Z,63.55
2022-10-06T07:22:47.769Z,63.06
2022-10-06T07:25:26.341Z,63.21
2022-10-06T07:28:07.826Z,58.54
2022-10-06T07:30:40.965Z,58.48
2022-10-06T07:33:20.963Z,58.49
2022-10-06T07:35:50.422Z,58.58
2022-10-06T07:38:25.738Z,58.06
2022-10-06T07:41:19.327Z,58.46
2022-10-06T07:43:50.842Z,55.94
2022-10-06T07:46:19.504Z,56.68
2022-10-06T07:49:22.643Z,54.98
2022-10-06T07:51:50.305Z,54.54
2022-10-06T07:54:18.536Z,53.78
2022-10-06T07:57:04.321Z,51.77
2022-10-06T07:59:35.220Z,52.32
2022-10-06T08:02:02.784Z,51.72
2022-10-06T08:04:30.343Z,49.89
2022-10-06T08:06:58.527Z,50.60
2022-10-06T08:09:26.140Z,50.87
2022-10-06T08:11:53.747Z,49.93
2022-10-06T08:14:24.387Z,51.19
2022-10-06T08:16:53.338Z,50.42
2022-10-06T08:19:21.122Z,48.18
2022-10-06T08:21:48.737Z,46.67
2022-10-06T08:24:17.244Z,49.42
2022-10-06T08:26:44.733Z,48.64
2022-10-06T08:29:12.261Z,48.66
2022-10-06T08:31:39.784Z,49.44
2022-10-06T08:34:11.934Z,47.71
2022-10-06T08:36:42.525Z,49.19
2022-10-06T08:39:18.398Z,46.89
2022-10-06T08:41:51.964Z,47.24
2022-10-06T08:44:35.419Z,46.19
2022-10-06T08:47:24.242Z,45.86
2022-10-06T08:49:55.404Z,44.21
2022-10-06T08:52:35.065Z,46.42
2022-10-06T08:55:28.261Z,46.98
2022-10-06T08:58:55.577Z,43.74
2022-10-06T09:01:28.410Z,43.76
2022-10-06T09:04:01.804Z,43.95
2022-10-06T09:07:11.362Z,42.85
2022-10-06T09:10:01.253Z,41.20
2022-10-06T09:13:19.609Z,42.19
2022-10-06T09:16:07.654Z,41.43
2022-10-06T09:19:08.327Z,41.91
2022-10-06T09:21:52.329Z,40.85
2022-10-06T09:24:38.710Z,40.97
2022-10-06T09:27:38.904Z,39.61
2022-10-06T09:30:08.697Z,38.37
2022-10-06T09:32:37.254Z,40.13
2022-10-06T09:35:24.056Z,39.02
2022-10-06T09:37:57.038Z,39.11
2022-10-06T09:40:55.720Z,40.48
2022-10-06T09:43:28.961Z,38.09
2022-10-06T09:46:18.602Z,38.95
2022-10-06T09:48:46.117Z,39.43
2022-10-06T09:51:18.737Z,38.52
2022-10-06T09:54:15.660Z,38.76
2022-10-06T09:56:46.410Z,37.71
2022-10-06T09:59:35.055Z,38.51
2022-10-06T10:02:05.330Z,38.41
2022-10-06T10:04:40.512Z,36.78
2022-10-06T10:07:29.429Z,37.80
2022-10-06T10:10:24.772Z,37.77
2022-10-06T10:13:00.095Z,38.02
2022-10-06T10:15:31.251Z,38.03
2022-10-06T10:18:05.798Z,37.84
2022-10-06T10:20:53.183Z,36.18
2022-10-06T10:23:33.871Z,36.63
2022-10-06T10:26:30.971Z,37.46
2022-10-06T10:29:33.247Z,36.28
2022-10-06T10:32:12.832Z,36.52
2022-10-06T10:35:05.449Z,35.09
2022-10-06T10:37:46.308Z,33.55
2022-10-06T10:40:43.221Z,33.50
2022-10-06T10:43:17.533Z,34.58
2022-10-06T10:45:51.788Z,34.41
2022-10-06T10:48:31.920Z,33.13
2022-10-06T10:51:25.283Z,34.06
2022-10-06T10:54:08.871Z,35.14
2022-10-06T10:56:36.482Z,33.88
2022-10-06T10:59:23.110Z,34.08
2022-10-06T11:02:21.671Z,32.25
2022-10-06T11:04:58.489Z,34.03
2022-10-06T11:07:39.250Z,33.85
2022-10-06T11:10:26.325Z,32.71
2022-10-06T11:13:16.973Z,32.55
2022-10-06T11:16:37.275Z,31.57
2022-10-06T11:19:37.042Z,32.92
2022-10-06T11:22:11.053Z,31.58
2022-10-06T11:25:13.669Z,30.91
2022-10-06T11:28:04.926Z,31.52
2022-10-06T11:30:41.084Z,32.14
2022-10-06T11:33:20.904Z,31.13
2022-10-06T11:35:49.692Z,30.71
2022-10-06T11:38:27.676Z,31.08
2022-10-06T11:41:26.131Z,30.86
2022-10-06T11:44:32.666Z,30.28
2022-10-06T11:47:14.065Z,30.62
2022-10-06T11:49:53.649Z,30.10
2022-10-06T11:52:21.025Z,30.32
2022-10-06T11:55:16.175Z,29.89
2022-10-06T12:01:02.487Z,27.83
2022-10-06T12:03:31.146Z,28.52
2022-10-06T12:05:58.666Z,28.84
2022-10-06T12:08:41.596Z,27.99
2022-10-06T12:11:42.433Z,27.72
2022-10-06T12:18:07.395Z,27.48
2022-10-06T12:21:09.214Z,26.98
2022-10-06T12:24:25.720Z,26.31
2022-10-06T12:27:25.832Z,25.23
2022-10-06T12:30:21.520Z,25.75
2022-10-06T12:32:56.157Z,25.57
2022-10-06T12:35:29.838Z,26.75
2022-10-06T12:38:04.764Z,26.99
2022-10-06T12:40:47.471Z,26.60
2022-10-06T12:43:14.965Z,27.07
2022-10-06T12:45:58.059Z,25.97
2022-10-06T12:48:56.091Z,24.48
2022-10-06T12:51:46.041Z,25.55
2022-10-06T12:54:34.945Z,24.40
2022-10-06T12:57:14.314Z,24.73
2022-10-06T12:59:42.088Z,23.88
2022-10-06T13:02:43.364Z,23.48
2022-10-06T13:05:12.897Z,23.54
2022-10-06T13:08:05.842Z,23.46
2022-10-06T13:10:34.347Z,23.84
2022-10-06T13:13:02.506Z,22.39
2022-10-06T13:15:38.665Z,23.50
2022-10-06T13:18:11.565Z,22.97
2022-10-06T13:20:50.021Z,22.01
2022-10-06T13:23:35.297Z,22.04
2022-10-06T13:26:22.720Z,21.49
2022-10-06T13:29:01.477Z,21.94
2022-10-06T13:31:35.281Z,21.16
2022-10-06T13:34:14.005Z,21.22
2022-10-06T13:36:53.403Z,22.71
2022-10-06T13:39:25.448Z,21.97
2022-10-06T13:42:02.758Z,22.13
2022-10-06T13:44:35.407Z,21.41
2022-10-06T13:47:20.691Z,21.35
2022-10-06T13:49:52.276Z,22.20
2022-10-06T13:52:40.395Z,21.86
2022-10-06T13:55:24.715Z,21.20
2022-10-06T13:58:18.406Z,19.95
2022-10-06T14:00:56.016Z,21.24
2022-10-06T14:03:37.739Z,20.70
2022-10-06T14:06:17.951Z,21.44
2022-10-06T14:08:55.231Z,20.13
2022-10-06T14:11:29.599Z,20.46
2022-10-06T14:14:05.592Z,20.65
2022-10-06T14:16:33.253Z,20.88
2022-10-06T14:19:04.533Z,21.58
2022-10-06T14:21:36.872Z,21.86
2022-10-06T14:24:19.540Z,22.20
2022-10-06T14:26:51.326Z,21.90
2022-10-06T14:29:19.442Z,21.18
2022-10-06T14:31:48.897Z,20.95
2022-10-06T14:34:20.297Z,21.58
2022-10-06T14:36:52.013Z,21.22
2022-10-06T14:39:19.950Z,21.14
2022-10-06T14:41:47.679Z,22.54
2022-10-06T14:44:16.152Z,22.66
2022-10-06T14:46:48.338Z,22.11
2022-10-06T14:49:16.997Z,22.91
2022-10-06T14:51:46.170Z,23.29
2022-10-06T14:54:14.023Z,23.51
2022-10-06T14:56:42.648Z,24.00
2022-10-06T14:59:17.273Z,24.88
2022-10-06T15:01:46.238Z,25.35
2022-10-06T15:04:18.819Z,25.40
2022-10-06T15:07:06.478Z,26.62
2022-10-06T15:09:34.324Z,28.22
2022-10-06T15:12:01.856Z,28.71
2022-10-06T15:14:30.573Z,30.25
2022-10-06T15:17:01.593Z,30.83
2022-10-06T15:19:29.134Z,31.42
2022-10-06T15:21:57.086Z,31.88
2022-10-06T15:24:44.797Z,32.73
2022-10-06T15:27:31.119Z,33.84
2022-10-06T15:29:59.135Z,34.34
2022-10-06T15:32:26.754Z,34.68
2022-10-06T15:34:55.278Z,35.70
2022-10-06T15:37:22.729Z,36.54
2022-10-06T15:39:52.194Z,37.48
2022-10-06T15:42:24.023Z,38.50
2022-10-06T15:44:55.045Z,38.60
2022-10-06T15:47:23.930Z,38.91
2022-10-06T15:49:54.504Z,38.58
2022-10-06T15:52:22.919Z,39.52
2022-10-06T15:54:50.437Z,40.63
2022-10-06T15:57:20.884Z,41.24
2022-10-06T15:59:49.095Z,41.66
2022-10-06T16:02:18.573Z,42.91
2022-10-06T16:05:19.701Z,43.55
2022-10-06T16:07:47.345Z,43.79
2022-10-06T16:10:16.250Z,44.22
2022-10-06T16:12:43.793Z,44.22
2022-10-06T16:15:11.599Z,44.68
2022-10-06T16:17:39.153Z,45.04
2022-10-06T16:20:07.538Z,45.53
2022-10-06T16:22:35.496Z,45.94
2022-10-06T16:25:03.452Z,46.48
2022-10-06T16:27:33.424Z,46.49
2022-10-06T16:30:02.489Z,46.50
2022-10-06T16:32:29.923Z,47.06
2022-10-06T16:34:57.379Z,47.21
2022-10-06T16:37:24.902Z,47.14
2022-10-06T16:39:52.917Z,47.44
2022-10-06T16:42:20.433Z,47.33
2022-10-06T16:44:48.438Z,47.85
2022-10-06T16:47:16.000Z,48.21
2022-10-06T16:49:43.973Z,48.59
2022-10-06T16:52:12.737Z,48.09
2022-10-06T16:54:44.122Z,48.35
2022-10-06T16:57:14.075Z,48.25
2022-10-06T16:59:46.450Z,48.43
2022-10-06T17:02:14.836Z,48.48
2022-10-06T17:04:42.542Z,48.89
2022-10-06T17:07:10.158Z,48.56
2022-10-06T17:09:37.762Z,48.73
2022-10-06T17:12:05.797Z,48.68
2022-10-06T17:14:35.175Z,48.49
2022-10-06T17:17:02.660Z,48.51
2022-10-06T17:19:31.133Z,48.64
2022-10-06T17:21:59.958Z,49.21
2022-10-06T17:24:37.146Z,48.58
2022-10-06T17:27:05.154Z,49.32
2022-10-06T17:29:39.112Z,49.07
2022-10-06T17:32:06.766Z,47.31
2022-10-06T17:34:38.155Z,47.68
2022-10-06T17:37:09.132Z,47.56
2022-10-06T17:39:37.845Z,46.87
2022-10-06T17:42:05.673Z,46.97
2022-10-06T17:44:35.669Z,47.19
2022-10-06T17:47:05.296Z,47.11
2022-10-06T17:49:34.892Z,47.68
2022-10-06T17:52:02.528Z,48.56
2022-10-06T17:54:33.619Z,48.14
2022-10-06T17:57:01.328Z,48.67
2022-10-06T17:59:32.120Z,48.40
2022-10-06T18:02:03.034Z,48.12
2022-10-06T18:04:31.466Z,48.31
2022-10-06T18:06:59.090Z,47.98
2022-10-06T18:09:26.977Z,48.72
2022-10-06T18:12:00.026Z,49.12
2022-10-06T18:14:34.885Z,49.33
2022-10-06T18:17:11.553Z,49.04
2022-10-06T18:19:39.557Z,49.88
2022-10-06T18:22:10.851Z,49.73
2022-10-06T18:24:41.567Z,49.75
2022-10-06T18:27:09.634Z,50.43
2022-10-06T18:29:40.561Z,50.19
2022-10-06T18:33:10.788Z,49.88
2022-10-06T18:37:48.987Z,50.29
2022-10-06T18:40:21.485Z,48.93
2022-10-06T18:42:50.245Z,49.06
2022-10-06T18:45:39.550Z,49.67
2022-10-06T18:48:28.599Z,49.93
2022-10-06T18:51:04.662Z,50.66
2022-10-06T18:53:39.471Z,50.20
2022-10-06T18:56:09.585Z,50.54
2022-10-06T18:58:50.401Z,49.52
2022-10-06T19:01:20.437Z,49.74
2022-10-06T19:03:59.046Z,50.12
2022-10-06T19:06:56.602Z,50.04
2022-10-06T19:09:27.830Z,49.80
2022-10-06T19:12:03.294Z,50.67
2022-10-06T19:14:43.242Z,51.53
2022-10-06T19:17:15.831Z,51.34
2022-10-06T19:19:53.982Z,52.90
2022-10-06T19:22:28.394Z,54.43
2022-10-06T19:24:59.852Z,55.87
2022-10-06T19:27:30.009Z,55.53
2022-10-06T19:29:58.142Z,56.66
2022-10-06T19:32:36.073Z,57.29
2022-10-06T19:35:37.565Z,57.14
2022-10-06T19:38:08.503Z,57.78
2022-10-06T19:40:40.177Z,58.49
2022-10-06T19:43:09.365Z,58.31
2022-10-06T19:45:38.356Z,59.62
2022-10-06T19:48:13.094Z,58.84
2022-10-06T19:50:43.052Z,58.58
2022-10-06T19:53:10.649Z,59.16
2022-10-06T19:55:39.366Z,58.61
2022-10-06T19:58:06.985Z,59.75
2022-10-06T20:00:36.904Z,59.21
2022-10-06T20:03:08.657Z,58.88
2022-10-06T20:05:38.453Z,58.72
2022-10-06T20:08:09.810Z,57.98
2022-10-06T20:10:37.446Z,58.67
2022-10-06T20:13:07.525Z,57.33
2022-10-06T20:15:35.773Z,58.29
2022-10-06T20:18:04.449Z,60.61
2022-10-06T20:20:32.536Z,59.33
2022-10-06T20:23:00.573Z,59.27
2022-10-06T20:25:28.115Z,60.26
2022-10-06T20:27:56.441Z,61.13
2022-10-06T20:30:24.377Z,60.53
2022-10-06T20:32:54.585Z,59.88
2022-10-06T20:35:22.666Z,60.20
2022-10-06T20:37:50.841Z,60.57
2022-10-06T20:40:37.223Z,60.94
2022-10-06T20:43:04.918Z,61.00
2022-10-06T20:45:32.419Z,60.28
2022-10-06T20:48:01.426Z,61.15
2022-10-06T20:50:31.775Z,62.38
2022-10-06T20:52:59.348Z,62.83
2022-10-06T20:55:26.817Z,61.58
2022-10-06T20:57:54.914Z,61.96
2022-10-06T21:00:23.016Z,62.80
2022-10-06T21:02:50.727Z,63.61
2022-10-06T21:05:18.979Z,63.65
2022-10-06T21:07:46.836Z,64.38
2022-10-06T21:10:14.641Z,64.66
2022-10-06T21:12:43.198Z,65.40
2022-10-06T21:15:12.219Z,65.14
2022-10-06T21:17:41.515Z,65.21
2022-10-06T21:20:09.713Z,66.40
2022-10-06T21:22:37.233Z,66.36
2022-10-06T21:25:05.081Z,66.78
2022-10-06T21:27:32.633Z,66.46
2022-10-06T21:30:00.145Z,66.65
2022-10-06T21:32:28.269Z,66.75
2022-10-06T21:34:56.539Z,67.20
2022-10-06T21:37:24.026Z,67.49
2022-10-06T21:39:51.920Z,67.18
2022-10-06T21:42:21.479Z,67.34
2022-10-06T21:44:49.137Z,67.71
2022-10-06T21:47:16.671Z,66.85
2022-10-06T21:49:44.204Z,66.66
2022-10-06T21:52:11.696Z,65.51
2022-10-06T21:54:39.212Z,67.15
2022-10-06T21:57:08.132Z,67.58
2022-10-06T21:59:35.655Z,67.45
2022-10-06T22:02:06.372Z,68.51
2022-10-06T22:04:33.957Z,68.95
2022-10-06T22:07:01.459Z,68.36
2022-10-06T22:09:29.016Z,69.08
2022-10-06T22:11:56.470Z,69.78
2022-10-06T22:14:23.972Z,69.68
2022-10-06T22:16:51.459Z,69.76
2022-10-06T22:19:19.260Z,70.29
2022-10-06T22:21:48.736Z,70.15
2022-10-06T22:24:20.178Z,70.20
2022-10-06T22:26:48.534Z,69.09
2022-10-06T22:29:18.808Z,69.34
2022-10-06T22:31:47.950Z,69.28
2022-10-06T22:34:19.315Z,69.64
2022-10-06T22:36:47.362Z,70.12
2022-10-06T22:39:15.056Z,69.78
2022-10-06T22:41:42.739Z,69.92
2022-10-06T22:44:10.316Z,70.04
2022-10-06T22:46:38.697Z,71.51
2022-10-06T22:49:07.132Z,71.22
2022-10-06T22:51:35.581Z,71.39
2022-10-06T22:54:03.438Z,70.94
2022-10-06T22:56:33.323Z,70.98
2022-10-06T22:59:01.274Z,71.38
2022-10-06T23:01:30.367Z,71.52
2022-10-06T23:03:58.323Z,71.29
2022-10-06T23:06:26.790Z,71.81
2022-10-06T23:08:54.346Z,72.08
2022-10-06T23:11:23.184Z,72.70
2022-10-06T23:13:53.011Z,72.43
2022-10-06T23:16:21.808Z,71.85
2022-10-06T23:18:50.083Z,72.69
2022-10-06T23:21:24.295Z,72.46
2022-10-06T23:23:54.869Z,72.92
2022-10-06T23:26:24.368Z,73.09
2022-10-06T23:28:59.382Z,73.23
2022-10-06T23:31:28.947Z,73.35
2022-10-06T23:33:57.024Z,72.88
2022-10-06T23:36:25.068Z,73.03
2022-10-06T23:38:52.984Z,73.14
2022-10-06T23:41:21.217Z,73.13
2022-10-06T23:43:48.871Z,73.05
2022-10-06T23:46:16.597Z,73.38
2022-10-06T23:48:44.165Z,73.04
2022-10-06T23:51:15.257Z,73.24
2022-10-06T23:53:43.400Z,73.40
2022-10-06T23:56:12.117Z,73.48
2022-10-06T23:58:40.063Z,74.10
